Time;durP1;ratioP1;P1;durP2;ratioP2;P2;SDS_P1;SDS_P2;PMS_P1;PMS_P2;Temp;Humidity;BMP_temperature;BMP_pressure;BME280_temperature;BME280_humidity;BME280_pressure;Samples;Min_cycle;Max_cycle;Signal;HPM_P1;HPM_P2
2023/08/31 00:00:32;;;;;;;0.00;0.00;;;;;;;21.73;100.00;100644.09;2092485;28;20218;-64
2023/08/31 00:01:33;;;;;;;0.00;0.00;;;;;;;21.67;100.00;100643.28;2089829;28;20194;-64
2023/08/31 00:02:33;;;;;;;0.40;0.40;;;;;;;21.42;100.00;100581.41;2090723;28;20652;-64
2023/08/31 00:03:34;;;;;;;0.10;0.10;;;;;;;21.79;100.00;100638.44;2091281;28;20230;-64
2023/08/31 00:04:34;;;;;;;0.00;0.00;;;;;;;21.81;100.00;100635.91;2087879;28;20214;-64
2023/08/31 00:05:37;;;;;;;0.10;0.10;;;;;;;21.85;100.00;100639.25;2091298;28;20175;-64
2023/08/31 00:06:38;;;;;;;0.00;0.00;;;;;;;21.86;100.00;100632.34;2095105;28;20181;-64
2023/08/31 00:07:38;;;;;;;0.10;0.10;;;;;;;21.94;100.00;100653.09;2087816;28;20184;-64
2023/08/31 00:08:38;;;;;;;0.30;0.30;;;;;;;21.94;100.00;100639.00;2094095;28;20191;-64
2023/08/31 00:09:39;;;;;;;0.10;0.10;;;;;;;21.92;100.00;100652.84;2091107;28;20180;-64
2023/08/31 00:10:40;;;;;;;0.20;0.20;;;;;;;21.93;100.00;100654.41;2087756;28;20189;-64
2023/08/31 00:11:40;;;;;;;0.20;0.20;;;;;;;21.89;100.00;100645.41;2087536;28;20600;-64
2023/08/31 00:12:40;;;;;;;0.00;0.00;;;;;;;21.94;100.00;100650.28;2087680;28;20203;-64
2023/08/31 00:13:41;;;;;;;0.30;0.17;;;;;;;21.80;100.00;100652.06;2093832;28;20183;-64
2023/08/31 00:14:41;;;;;;;0.10;0.10;;;;;;;21.70;100.00;100630.25;2088111;28;20217;-64
2023/08/31 00:15:42;;;;;;;0.10;0.10;;;;;;;21.85;100.00;100656.94;2092557;28;20644;-64
2023/08/31 00:16:42;;;;;;;0.10;0.10;;;;;;;21.87;100.00;100656.44;2091381;28;20673;-64
2023/08/31 00:17:42;;;;;;;0.00;0.00;;;;;;;21.85;100.00;100662.59;2087856;28;20629;-64
2023/08/31 00:18:45;;;;;;;0.10;0.10;;;;;;;21.81;100.00;100647.94;2090306;28;20190;-64
2023/08/31 00:19:45;;;;;;;0.20;0.20;;;;;;;21.85;100.00;100654.13;2092254;28;20211;-64
2023/08/31 00:20:45;;;;;;;0.10;0.10;;;;;;;21.96;100.00;100661.84;2092248;28;20813;-64
2023/08/31 00:21:46;;;;;;;0.10;0.10;;;;;;;21.96;100.00;100651.31;2089217;28;20199;-64
2023/08/31 00:22:46;;;;;;;0.10;0.10;;;;;;;21.92;100.00;100662.09;2091310;28;20211;-64
2023/08/31 00:23:47;;;;;;;0.20;0.20;;;;;;;21.92;100.00;100653.66;2087549;28;20184;-64
2023/08/31 00:24:47;;;;;;;0.23;0.23;;;;;;;21.95;100.00;100654.69;2087831;28;20180;-64
2023/08/31 00:25:48;;;;;;;0.10;0.10;;;;;;;21.33;100.00;100556.28;2093493;28;20224;-64
2023/08/31 00:26:51;;;;;;;0.03;0.03;;;;;;;21.97;100.00;100654.94;2092186;28;20245;-64
2023/08/31 00:27:52;;;;;;;0.00;0.00;;;;;;;21.87;100.00;100654.41;2089548;28;20188;-64
2023/08/31 00:28:53;;;;;;;0.00;0.00;;;;;;;21.88;100.00;100655.94;2091680;28;20695;-64
2023/08/31 00:29:55;;;;;;;0.00;0.00;;;;;;;21.92;100.00;100644.41;2094413;28;20195;-64
2023/08/31 00:30:57;;;;;;;0.00;0.00;;;;;;;21.97;100.00;100647.25;2095659;28;20270;-64
2023/08/31 00:31:57;;;;;;;0.10;0.10;;;;;;;22.02;100.00;100643.66;2089369;28;20736;-64
2023/08/31 00:33:01;;;;;;;0.20;0.20;;;;;;;22.03;100.00;100648.03;2087156;28;20176;-64
2023/08/31 00:34:03;;;;;;;0.10;0.10;;;;;;;22.06;100.00;100651.88;2094906;28;20191;-64
2023/08/31 00:35:04;;;;;;;0.10;0.10;;;;;;;21.65;100.00;100585.84;2087815;28;20180;-64
2023/08/31 00:36:04;;;;;;;0.10;0.10;;;;;;;22.03;100.00;100650.06;2090496;28;20191;-64
2023/08/31 00:37:05;;;;;;;0.00;0.00;;;;;;;22.03;100.00;100656.47;2090641;28;20744;-64
2023/08/31 00:38:05;;;;;;;0.10;0.10;;;;;;;22.06;100.00;100663.16;2088524;28;20250;-64
2023/08/31 00:39:08;;;;;;;0.00;0.00;;;;;;;21.48;100.00;100570.91;2090013;28;20288;-64
2023/08/31 00:40:11;;;;;;;0.10;0.10;;;;;;;22.05;100.00;100665.19;2087547;28;20275;-64
2023/08/31 00:41:12;;;;;;;0.10;0.10;;;;;;;22.07;100.00;100659.06;2093940;28;20615;-64
2023/08/31 00:42:14;;;;;;;0.10;0.10;;;;;;;21.97;100.00;100654.94;2087733;28;20258;-64
2023/08/31 00:43:20;;;;;;;0.10;0.10;;;;;;;21.39;100.00;100571.16;2087690;28;20180;-64
2023/08/31 00:44:21;;;;;;;0.10;0.10;;;;;;;21.93;100.00;100665.69;2094881;28;20171;-64
2023/08/31 00:45:22;;;;;;;0.07;0.07;;;;;;;21.93;100.00;100663.63;2087520;28;20215;-64
2023/08/31 00:46:22;;;;;;;0.20;0.20;;;;;;;21.94;100.00;100658.75;2087703;28;20181;-64
2023/08/31 00:47:23;;;;;;;0.23;0.23;;;;;;;21.25;100.00;100556.00;2088865;28;20207;-64
2023/08/31 00:48:24;;;;;;;0.20;0.20;;;;;;;21.65;100.00;100611.97;2091211;28;20551;-64
2023/08/31 00:49:24;;;;;;;0.37;0.10;;;;;;;21.91;100.00;100651.31;2092276;28;20732;-64
2023/08/31 00:50:25;;;;;;;0.70;0.50;;;;;;;21.16;100.00;100544.94;2093205;28;20573;-64
2023/08/31 00:51:25;;;;;;;0.20;0.20;;;;;;;21.88;100.00;100655.16;2094883;28;20225;-64
2023/08/31 00:52:26;;;;;;;0.10;0.10;;;;;;;21.86;100.00;100663.38;2088294;28;20662;-64
2023/08/31 00:53:27;;;;;;;0.00;0.00;;;;;;;21.86;100.00;100661.28;2087761;28;20669;-64
2023/08/31 00:54:27;;;;;;;0.10;0.10;;;;;;;21.86;100.00;100669.75;2089693;28;20187;-64
2023/08/31 00:55:28;;;;;;;0.00;0.00;;;;;;;21.86;100.00;100666.94;2088548;28;20700;-64
2023/08/31 00:56:28;;;;;;;0.20;0.20;;;;;;;21.85;100.00;100656.94;2089004;28;20199;-64
2023/08/31 00:57:29;;;;;;;0.00;0.00;;;;;;;21.85;100.00;100664.66;2095544;28;20260;-64
2023/08/31 00:58:30;;;;;;;0.17;0.17;;;;;;;21.85;100.00;100673.13;2095801;28;20188;-64
2023/08/31 00:59:30;;;;;;;0.10;0.10;;;;;;;21.80;100.00;100671.81;2089592;28;20861;-64
2023/08/31 01:00:56;;;;;;;0.23;0.10;;;;;;;21.79;100.00;100681.53;2092214;28;20638;-64
2023/08/31 01:02:20;;;;;;;0.03;0.03;;;;;;;21.76;100.00;100678.97;2090955;28;20649;-64
2023/08/31 01:03:26;;;;;;;0.23;0.10;;;;;;;21.75;100.00;100683.84;2092276;28;20437;-64
2023/08/31 01:04:47;;;;;;;0.10;0.10;;;;;;;21.71;100.00;100680.50;2093534;28;20191;-64
2023/08/31 01:06:32;;;;;;;0.00;0.00;;;;;;;21.68;100.00;100677.88;2090964;28;20190;-64
2023/08/31 01:07:48;;;;;;;0.10;0.10;;;;;;;21.63;100.00;100687.88;2089203;28;20418;-64
2023/08/31 01:09:01;;;;;;;0.03;0.03;;;;;;;21.64;100.00;100683.75;2092797;28;20172;-64
2023/08/31 01:10:11;;;;;;;0.10;0.10;;;;;;;21.62;100.00;100691.97;2096277;28;20175;-64
2023/08/31 01:11:33;;;;;;;0.20;0.20;;;;;;;21.58;100.00;100682.19;2097053;28;20175;-64
2023/08/31 01:12:34;;;;;;;0.20;0.20;;;;;;;21.52;100.00;100695.50;2089260;28;20980;-64
2023/08/31 01:13:38;;;;;;;0.30;0.30;;;;;;;21.53;100.00;100695.00;2093300;28;20588;-64
2023/08/31 01:14:42;;;;;;;0.10;0.10;;;;;;;21.54;100.00;100698.59;2090281;28;20188;-64
2023/08/31 01:15:46;;;;;;;3.30;0.73;;;;;;;21.56;100.00;100696.81;2095580;28;20433;-64
2023/08/31 01:16:49;;;;;;;0.00;0.00;;;;;;;20.78;100.00;100587.75;2091487;28;20611;-64
2023/08/31 01:17:54;;;;;;;0.40;0.40;;;;;;;21.52;100.00;100698.31;2089171;28;20687;-64
2023/08/31 01:18:56;;;;;;;0.30;0.20;;;;;;;21.19;100.00;100641.78;2089043;28;20438;-64
2023/08/31 01:19:59;;;;;;;0.20;0.20;;;;;;;21.51;100.00;100700.38;2089260;28;20437;-64
2023/08/31 01:21:16;;;;;;;0.10;0.10;;;;;;;21.32;100.00;100679.53;2088873;28;20430;-64
2023/08/31 01:22:30;;;;;;;0.00;0.00;;;;;;;21.44;100.00;100683.94;2091199;28;20187;-64
2023/08/31 01:23:53;;;;;;;0.20;0.17;;;;;;;21.56;100.00;100696.03;2091742;28;20440;-64
2023/08/31 01:24:54;;;;;;;0.10;0.10;;;;;;;21.56;100.00;100704.50;2090975;28;20434;-64
2023/08/31 01:25:55;;;;;;;0.03;0.03;;;;;;;21.54;100.00;100707.81;2092513;28;20437;-64
2023/08/31 01:26:56;;;;;;;0.10;0.10;;;;;;;21.55;100.00;100712.19;2092455;28;20719;-64
2023/08/31 01:27:58;;;;;;;0.57;0.10;;;;;;;21.48;100.00;100698.56;2089519;28;20184;-64
2023/08/31 01:28:59;;;;;;;0.10;0.10;;;;;;;21.50;100.00;100712.16;2092572;28;20890;-64
2023/08/31 01:30:00;;;;;;;0.57;0.30;;;;;;;21.44;100.00;100694.47;2092967;28;20436;-64
2023/08/31 01:31:05;;;;;;;0.30;0.20;;;;;;;21.53;100.00;100714.75;2088780;28;20191;-64
2023/08/31 01:32:07;;;;;;;0.00;0.00;;;;;;;21.52;100.00;100706.78;2089206;28;20196;-64
2023/08/31 01:33:07;;;;;;;0.03;0.03;;;;;;;21.52;100.00;100715.25;2089301;28;20441;-64
2023/08/31 01:34:07;;;;;;;0.00;0.00;;;;;;;21.55;100.00;100715.00;2092646;28;20465;-64
2023/08/31 01:35:08;;;;;;;0.00;0.00;;;;;;;21.54;100.00;100716.28;2088691;28;20191;-64
2023/08/31 01:36:17;;;;;;;0.00;0.00;;;;;;;21.55;100.00;100719.88;2089023;28;20184;-64
2023/08/31 01:37:27;;;;;;;0.10;0.10;;;;;;;21.57;100.00;100709.66;2091368;28;20185;-64
2023/08/31 01:38:30;;;;;;;0.87;0.50;;;;;;;21.58;100.00;100716.81;2089994;28;20264;-64
2023/08/31 01:39:43;;;;;;;0.17;0.10;;;;;;;21.50;100.00;100700.88;2089386;28;20216;-64
2023/08/31 01:41:01;;;;;;;0.10;0.10;;;;;;;21.55;100.00;100708.59;2090224;28;20193;-64
2023/08/31 01:42:05;;;;;;;0.10;0.10;;;;;;;21.10;100.00;100654.06;2094202;28;20472;-64
2023/08/31 01:43:07;;;;;;;0.00;0.00;;;;;;;21.04;100.00;100636.31;2093846;28;20973;-64
2023/08/31 01:44:12;;;;;;;1.90;0.73;;;;;;;21.51;100.00;100717.31;2093839;28;20446;-64
2023/08/31 01:45:16;;;;;;;0.07;0.07;;;;;;;21.55;100.00;100717.81;2092910;28;20192;-64
2023/08/31 01:46:17;;;;;;;0.10;0.10;;;;;;;21.54;100.00;100724.00;2094314;28;20417;-64
2023/08/31 01:47:19;;;;;;;0.40;0.40;;;;;;;21.52;100.00;100721.66;2089390;28;20467;-64
2023/08/31 01:48:19;;;;;;;0.00;0.00;;;;;;;21.54;100.00;100730.38;2088686;28;20180;-64
2023/08/31 01:49:21;;;;;;;0.00;0.00;;;;;;;21.55;100.00;100726.28;2089280;28;20506;-64
2023/08/31 01:50:21;;;;;;;0.10;0.10;;;;;;;21.54;100.00;100732.44;2090363;28;20645;-64
2023/08/31 01:51:22;;;;;;;0.07;0.07;;;;;;;21.54;100.00;100729.63;2088634;28;20557;-64
2023/08/31 01:52:23;;;;;;;0.20;0.20;;;;;;;21.48;100.00;100723.16;2091457;28;20210;-64
2023/08/31 01:53:23;;;;;;;0.10;0.10;;;;;;;21.51;100.00;100722.94;2088694;28;20434;-64
2023/08/31 01:54:23;;;;;;;0.10;0.10;;;;;;;21.52;100.00;100723.69;2091335;28;20742;-64
2023/08/31 01:55:24;;;;;;;0.10;0.10;;;;;;;21.51;100.00;100719.34;2095670;28;20187;-64
2023/08/31 01:56:25;;;;;;;0.10;0.10;;;;;;;21.57;100.00;100715.28;2089377;28;20180;-64
2023/08/31 01:57:25;;;;;;;0.20;0.20;;;;;;;21.56;100.00;100721.41;2088244;28;20263;-64
2023/08/31 01:58:26;;;;;;;0.00;0.00;;;;;;;21.50;100.00;100720.63;2089612;28;20180;-64
2023/08/31 01:59:27;;;;;;;0.53;0.53;;;;;;;21.39;100.00;100683.91;2090443;28;20204;-64
2023/08/31 02:00:28;;;;;;;0.00;0.00;;;;;;;21.43;100.00;100681.63;2090809;28;20265;-64
2023/08/31 02:01:29;;;;;;;0.07;0.07;;;;;;;21.64;100.00;100711.97;2092722;28;20191;-64
2023/08/31 02:02:29;;;;;;;0.23;0.20;;;;;;;21.62;100.00;100714.53;2089764;28;20195;-64
2023/08/31 02:03:30;;;;;;;0.10;0.10;;;;;;;21.52;100.00;100706.78;2095589;28;20172;-64
2023/08/31 02:04:30;;;;;;;0.00;0.00;;;;;;;21.57;100.00;100720.13;2089475;28;20212;-64
2023/08/31 02:05:49;;;;;;;0.00;0.00;;;;;;;21.54;100.00;100715.53;2089464;28;20183;-64
2023/08/31 02:06:50;;;;;;;0.10;0.10;;;;;;;21.48;100.00;100703.41;2088846;28;20169;-64
2023/08/31 02:07:50;;;;;;;0.10;0.10;;;;;;;21.49;100.00;100717.03;2093129;28;20200;-64
2023/08/31 02:08:51;;;;;;;0.10;0.10;;;;;;;21.12;100.00;100662.75;2089971;28;20191;-64
2023/08/31 02:09:51;;;;;;;0.00;0.00;;;;;;;21.58;100.00;100730.91;2089273;28;20188;-64
2023/08/31 02:10:53;;;;;;;0.10;0.10;;;;;;;21.58;100.00;100732.94;2089305;28;20196;-64
2023/08/31 02:11:53;;;;;;;0.20;0.20;;;;;;;21.61;100.00;100741.19;2091705;28;20184;-64
2023/08/31 02:12:54;;;;;;;0.00;0.00;;;;;;;21.64;100.00;100745.81;2088743;28;20219;-64
2023/08/31 02:13:54;;;;;;;0.00;0.00;;;;;;;21.65;100.00;100749.41;2087894;28;20199;-64
2023/08/31 02:14:55;;;;;;;0.20;0.20;;;;;;;21.52;100.00;100730.13;2094701;28;20231;-64
2023/08/31 02:15:55;;;;;;;1.43;0.73;;;;;;;21.52;100.00;100726.53;2095370;28;20206;-64
2023/08/31 02:16:56;;;;;;;0.10;0.10;;;;;;;21.66;100.00;100743.28;2094781;28;20172;-64
2023/08/31 02:17:56;;;;;;;0.47;0.10;;;;;;;21.66;100.00;100745.31;2089884;28;20624;-64
2023/08/31 02:18:57;;;;;;;0.00;0.00;;;;;;;21.66;100.00;100745.31;2089793;28;20181;-64
2023/08/31 02:19:58;;;;;;;0.10;0.10;;;;;;;21.67;100.00;100741.22;2093148;28;20184;-64
2023/08/31 02:20:59;;;;;;;0.20;0.10;;;;;;;21.69;100.00;100741.53;2089710;28;20657;-64
2023/08/31 02:21:59;;;;;;;0.00;0.00;;;;;;;21.70;100.00;100740.25;2094036;28;20238;-64
2023/08/31 02:23:00;;;;;;;0.10;0.10;;;;;;;21.08;100.00;100638.94;2091478;28;20606;-64
2023/08/31 02:24:00;;;;;;;0.10;0.10;;;;;;;20.58;100.00;100561.78;2091739;28;20175;-64
2023/08/31 02:25:01;;;;;;;0.10;0.10;;;;;;;21.78;100.00;100744.09;2090422;28;20176;-64
2023/08/31 02:26:01;;;;;;;0.33;0.33;;;;;;;21.79;100.00;100745.66;2088615;28;20220;-64
2023/08/31 02:27:02;;;;;;;0.10;0.10;;;;;;;21.75;100.00;100747.97;2088382;28;20232;-64
2023/08/31 02:28:02;;;;;;;0.03;0.03;;;;;;;21.70;100.00;100743.81;2090739;28;20187;-64
2023/08/31 02:29:03;;;;;;;0.10;0.10;;;;;;;21.22;100.00;100686.66;2088871;28;20242;-64
2023/08/31 02:30:04;;;;;;;0.20;0.20;;;;;;;21.65;100.00;100749.41;2088117;28;20799;-64
2023/08/31 02:31:05;;;;;;;0.00;0.00;;;;;;;21.61;100.00;100737.59;2091667;28;20196;-64
2023/08/31 02:32:06;;;;;;;0.10;0.10;;;;;;;21.25;100.00;100682.03;2089463;28;20431;-64
2023/08/31 02:33:06;;;;;;;0.10;0.10;;;;;;;21.65;100.00;100746.59;2095403;28;20240;-64
2023/08/31 02:34:07;;;;;;;0.53;0.47;;;;;;;21.20;100.00;100696.88;2094333;28;20445;-64
2023/08/31 02:35:07;;;;;;;0.00;0.00;;;;;;;21.57;100.00;100737.06;2089009;28;20196;-64
2023/08/31 02:36:08;;;;;;;0.10;0.10;;;;;;;20.87;100.00;100645.94;2090174;28;20581;-64
2023/08/31 02:37:08;;;;;;;0.10;0.10;;;;;;;21.46;100.00;100751.09;2092797;28;20190;-64
2023/08/31 02:38:08;;;;;;;0.13;0.13;;;;;;;21.39;100.00;100752.34;2091236;28;20230;-64
2023/08/31 02:39:09;;;;;;;0.00;0.00;;;;;;;21.37;100.00;100754.91;2088778;28;20218;-64
2023/08/31 02:40:10;;;;;;;1.93;0.97;;;;;;;21.37;100.00;100760.53;2092039;28;20196;-64
2023/08/31 02:41:11;;;;;;;0.00;0.00;;;;;;;21.38;100.00;100750.00;2096336;28;20190;-64
2023/08/31 02:42:11;;;;;;;0.00;0.00;;;;;;;21.12;100.00;100712.69;2090644;28;20258;-64
2023/08/31 02:43:11;;;;;;;0.10;0.10;;;;;;;20.98;100.00;100711.59;2088065;28;20183;-64
2023/08/31 02:44:12;;;;;;;0.00;0.00;;;;;;;20.85;100.00;100714.03;2094142;28;20183;-64
2023/08/31 02:45:13;;;;;;;0.10;0.10;;;;;;;21.16;100.00;100747.84;2096375;28;20270;-64
2023/08/31 02:46:13;;;;;;;0.00;0.00;;;;;;;21.17;100.00;100746.56;2092969;28;20662;-64
2023/08/31 02:47:13;;;;;;;0.30;0.30;;;;;;;21.12;100.00;100743.69;2092839;28;20199;-64
2023/08/31 02:48:14;;;;;;;0.10;0.10;;;;;;;21.04;100.00;100757.47;2088783;28;20591;-64
2023/08/31 02:49:14;;;;;;;0.00;0.00;;;;;;;21.01;100.00;100749.25;2091121;28;20964;-64
2023/08/31 02:50:15;;;;;;;0.10;0.10;;;;;;;20.78;100.00;100728.56;2088473;28;20285;-64
2023/08/31 02:51:15;;;;;;;0.20;0.20;;;;;;;20.92;100.00;100753.03;2088298;28;20314;-64
2023/08/31 02:52:16;;;;;;;0.63;0.10;;;;;;;20.92;100.00;100760.69;2091247;28;20552;-64
2023/08/31 02:53:16;;;;;;;0.00;0.00;;;;;;;20.92;100.00;100757.88;2094713;28;20633;-64
2023/08/31 02:54:17;;;;;;;0.10;0.10;;;;;;;20.91;100.00;100761.97;2088644;28;20256;-64
2023/08/31 02:55:17;;;;;;;0.10;0.10;;;;;;;20.86;100.00;100765.50;2089714;28;20267;-64
2023/08/31 02:56:17;;;;;;;0.10;0.10;;;;;;;20.83;100.00;100763.69;2095809;28;20184;-64
2023/08/31 02:57:19;;;;;;;0.10;0.10;;;;;;;20.81;100.00;100760.59;2093276;28;20176;-64
2023/08/31 02:58:20;;;;;;;0.07;0.07;;;;;;;20.73;100.00;100770.78;2096269;28;20175;-64
2023/08/31 02:59:20;;;;;;;0.27;0.10;;;;;;;20.73;100.00;100765.13;2089305;28;20278;-64
2023/08/31 03:00:22;;;;;;;0.00;0.00;;;;;;;20.67;100.00;100772.78;2093920;28;20179;-64
2023/08/31 03:01:23;;;;;;;0.00;0.00;;;;;;;20.65;100.00;100772.47;2089788;28;20191;-64
2023/08/31 03:02:24;;;;;;;0.20;0.20;;;;;;;20.64;100.00;100776.56;2088598;28;20566;-64
2023/08/31 03:03:25;;;;;;;0.00;0.00;;;;;;;20.64;100.00;100780.16;2088955;28;20218;-64
2023/08/31 03:04:26;;;;;;;0.10;0.10;;;;;;;20.44;100.00;100749.25;2092851;28;20180;-64
2023/08/31 03:05:27;;;;;;;0.10;0.10;;;;;;;20.66;100.00;100782.47;2089536;28;20686;-64
2023/08/31 03:06:27;;;;;;;0.20;0.20;;;;;;;20.67;100.00;100778.41;2091447;28;20578;-65
2023/08/31 03:07:28;;;;;;;0.10;0.10;;;;;;;20.67;100.00;100787.59;2089033;28;20659;-65
2023/08/31 03:08:28;;;;;;;0.47;0.47;;;;;;;19.86;100.00;100656.03;2088622;28;20192;-65
2023/08/31 03:09:28;;;;;;;0.10;0.10;;;;;;;20.66;100.00;100782.47;2088431;28;20194;-64
2023/08/31 03:10:29;;;;;;;0.37;0.23;;;;;;;20.67;100.00;100781.22;2088649;28;20188;-64
2023/08/31 03:11:30;;;;;;;0.37;0.37;;;;;;;20.25;100.00;100724.72;2093165;28;20190;-65
2023/08/31 03:12:31;;;;;;;0.20;0.20;;;;;;;20.71;100.00;100798.63;2089081;28;20179;-64
2023/08/31 03:13:32;;;;;;;1.20;0.83;;;;;;;20.73;100.00;100784.84;2089295;28;20216;-64
2023/08/31 03:14:32;;;;;;;0.10;0.10;;;;;;;20.71;100.00;100788.16;2095490;28;20176;-64
2023/08/31 03:15:36;;;;;;;0.10;0.10;;;;;;;20.75;100.00;100787.94;2091714;28;20502;-64
2023/08/31 03:16:36;;;;;;;0.10;0.10;;;;;;;19.94;100.00;100680.41;2095518;28;20180;-64
2023/08/31 03:17:37;;;;;;;0.10;0.10;;;;;;;20.62;100.00;100793.94;2095162;28;20774;-64
2023/08/31 03:18:37;;;;;;;0.13;0.13;;;;;;;20.60;100.00;100787.28;2088717;28;20672;-64
2023/08/31 03:19:38;;;;;;;0.20;0.20;;;;;;;20.52;100.00;100795.38;2088413;28;20192;-64
2023/08/31 03:20:38;;;;;;;0.00;0.00;;;;;;;19.86;100.00;100684.16;2089704;28;20188;-64
2023/08/31 03:21:39;;;;;;;0.10;0.10;;;;;;;20.14;100.00;100728.22;2089982;28;20184;-64
2023/08/31 03:22:39;;;;;;;0.10;0.10;;;;;;;20.57;100.00;100782.66;2093983;28;20168;-64
2023/08/31 03:23:40;;;;;;;0.10;0.10;;;;;;;20.57;100.00;100789.03;2094332;28;20233;-64
2023/08/31 03:24:40;;;;;;;0.10;0.10;;;;;;;20.22;100.00;100748.25;2091869;28;20180;-64
2023/08/31 03:25:41;;;;;;;0.10;0.10;;;;;;;20.50;100.00;100786.69;2095042;28;20190;-64
2023/08/31 03:26:41;;;;;;;0.10;0.10;;;;;;;20.57;100.00;100783.41;2090135;28;20183;-64
2023/08/31 03:27:42;;;;;;;0.07;0.07;;;;;;;20.51;100.00;100782.59;2090743;28;20449;-64
2023/08/31 03:28:43;;;;;;;0.10;0.10;;;;;;;20.57;100.00;100794.66;2092812;28;20223;-64
2023/08/31 03:29:43;;;;;;;0.10;0.10;;;;;;;20.60;100.00;100796.50;2089344;28;20184;-64
2023/08/31 03:30:46;;;;;;;0.07;0.07;;;;;;;20.62;100.00;100791.13;2088318;28;20180;-64
2023/08/31 03:31:46;;;;;;;0.00;0.00;;;;;;;20.64;100.00;100797.06;2095514;28;20188;-64
2023/08/31 03:32:47;;;;;;;0.03;0.03;;;;;;;20.68;100.00;100796.84;2088895;28;20448;-64
2023/08/31 03:33:47;;;;;;;0.50;0.50;;;;;;;20.66;100.00;100797.31;2088870;28;20236;-64
2023/08/31 03:34:48;;;;;;;0.30;0.30;;;;;;;20.01;100.00;100696.84;2093453;28;20223;-64
2023/08/31 03:35:48;;;;;;;0.10;0.10;;;;;;;20.70;100.00;100802.72;2093330;28;20188;-64
2023/08/31 03:36:50;;;;;;;0.07;0.07;;;;;;;20.71;100.00;100801.47;2092759;28;20227;-64
2023/08/31 03:37:50;;;;;;;0.10;0.10;;;;;;;20.71;100.00;100795.81;2088580;28;20203;-64
2023/08/31 03:38:51;;;;;;;0.10;0.10;;;;;;;20.69;100.00;100796.34;2089557;28;20418;-64
2023/08/31 03:39:51;;;;;;;0.10;0.10;;;;;;;20.69;100.00;100795.56;2088265;28;20176;-64
2023/08/31 03:40:55;;;;;;;0.03;0.03;;;;;;;20.72;100.00;100798.16;2089704;28;20404;-64
2023/08/31 03:41:55;;;;;;;0.00;0.00;;;;;;;20.74;100.00;100792.81;2087964;28;20258;-64
2023/08/31 03:42:56;;;;;;;0.00;0.00;;;;;;;20.34;100.00;100733.81;2088028;28;20466;-64
2023/08/31 03:43:56;;;;;;;0.10;0.10;;;;;;;20.76;100.00;100797.91;2088445;28;20195;-64
2023/08/31 03:44:56;;;;;;;0.10;0.10;;;;;;;20.77;100.00;100791.78;2089298;28;20192;-64
2023/08/31 03:45:57;;;;;;;0.10;0.10;;;;;;;20.78;100.00;100801.03;2095320;28;20274;-64
2023/08/31 03:46:58;;;;;;;0.10;0.10;;;;;;;20.78;100.00;100803.84;2093839;28;20290;-64
2023/08/31 03:47:58;;;;;;;0.10;0.10;;;;;;;20.78;100.00;100798.22;2092915;28;20180;-64
2023/08/31 03:48:59;;;;;;;0.93;0.73;;;;;;;20.75;100.00;100796.38;2088307;28;20184;-64
2023/08/31 03:49:59;;;;;;;0.03;0.03;;;;;;;20.26;100.00;100732.69;2088050;28;20316;-64
2023/08/31 03:50:59;;;;;;;0.10;0.10;;;;;;;20.74;100.00;100797.66;2088259;28;20479;-64
2023/08/31 03:52:00;;;;;;;0.00;0.00;;;;;;;20.09;100.00;100697.97;2091375;28;20241;-64
2023/08/31 03:53:01;;;;;;;0.17;0.10;;;;;;;20.75;100.00;100799.19;2093077;28;20675;-64
2023/08/31 03:54:02;;;;;;;0.10;0.10;;;;;;;20.74;100.00;100800.47;2091952;28;20681;-64
2023/08/31 03:55:03;;;;;;;0.20;0.10;;;;;;;20.75;100.00;100807.66;2092435;28;20790;-64
2023/08/31 03:56:04;;;;;;;0.27;0.27;;;;;;;20.67;100.00;100798.13;2093168;28;20184;-64
2023/08/31 03:57:04;;;;;;;0.97;0.87;;;;;;;20.22;100.00;100722.94;2088913;28;20569;-64
2023/08/31 03:58:05;;;;;;;0.20;0.20;;;;;;;20.74;100.00;100801.25;2096216;28;20445;-64
2023/08/31 03:59:05;;;;;;;0.10;0.10;;;;;;;20.68;100.00;100810.91;2092567;28;20196;-64
2023/08/31 04:00:10;;;;;;;0.20;0.20;;;;;;;20.68;100.00;100796.84;2095449;28;20405;-64
2023/08/31 04:01:10;;;;;;;0.10;0.10;;;;;;;20.65;100.00;100803.44;2093202;28;20183;-64
2023/08/31 04:02:11;;;;;;;0.10;0.10;;;;;;;20.61;100.00;100798.03;2091624;28;20447;-64
2023/08/31 04:03:11;;;;;;;0.03;0.03;;;;;;;20.62;100.00;100801.66;2087913;28;20306;-64
2023/08/31 04:04:12;;;;;;;0.53;0.40;;;;;;;20.14;100.00;100727.44;2088056;28;20195;-64
2023/08/31 04:05:14;;;;;;;0.10;0.10;;;;;;;20.16;100.00;100733.34;2088898;28;20246;-64
2023/08/31 04:06:15;;;;;;;0.00;0.00;;;;;;;20.61;100.00;100805.72;2091497;28;20677;-64
2023/08/31 04:07:16;;;;;;;0.10;0.10;;;;;;;20.65;100.00;100809.09;2093137;28;20477;-64
2023/08/31 04:08:17;;;;;;;0.10;0.10;;;;;;;20.66;100.00;100811.41;2094495;28;20176;-64
2023/08/31 04:09:17;;;;;;;0.10;0.10;;;;;;;20.68;100.00;100816.56;2092553;28;20194;-64
2023/08/31 04:10:19;;;;;;;0.10;0.10;;;;;;;20.70;100.00;100822.44;2094231;28;20212;-64
2023/08/31 04:11:19;;;;;;;0.30;0.13;;;;;;;20.68;100.00;100820.13;2089042;28;20184;-64
2023/08/31 04:12:19;;;;;;;0.10;0.10;;;;;;;20.61;100.00;100816.97;2088143;28;20446;-64
2023/08/31 04:13:20;;;;;;;0.10;0.10;;;;;;;20.70;100.00;100828.84;2091941;28;20167;-64
2023/08/31 04:14:20;;;;;;;0.10;0.10;;;;;;;20.69;100.00;100832.16;2095206;28;20198;-64
2023/08/31 04:15:21;;;;;;;0.10;0.10;;;;;;;20.68;100.00;100833.44;2087616;28;20234;-64
2023/08/31 04:16:21;;;;;;;0.20;0.20;;;;;;;20.68;100.00;100839.84;2088255;28;20219;-64
2023/08/31 04:17:21;;;;;;;0.07;0.07;;;;;;;20.71;100.00;100830.41;2087848;28;20184;-64
2023/08/31 04:18:22;;;;;;;0.00;0.00;;;;;;;20.25;100.00;100764.91;2091763;28;20195;-64
2023/08/31 04:19:22;;;;;;;0.00;0.00;;;;;;;20.26;100.00;100771.31;2087614;28;20657;-64
2023/08/31 04:20:23;;;;;;;0.10;0.10;;;;;;;20.41;100.00;100789.66;2089743;28;20210;-64
2023/08/31 04:21:23;;;;;;;0.10;0.10;;;;;;;20.80;100.00;100843.53;2094541;28;20187;-64
2023/08/31 04:22:24;;;;;;;0.10;0.10;;;;;;;20.75;100.00;100841.44;2091160;28;20179;-64
2023/08/31 04:23:24;;;;;;;0.10;0.10;;;;;;;20.80;100.00;100846.34;2090107;28;20264;-64
2023/08/31 04:24:26;;;;;;;0.10;0.10;;;;;;;20.79;100.00;100848.41;2088395;28;20226;-64
2023/08/31 04:25:30;;;;;;;0.40;0.40;;;;;;;20.76;100.00;100855.03;2088132;28;20898;-64
2023/08/31 04:26:31;;;;;;;0.03;0.03;;;;;;;20.78;100.00;100857.34;2089175;28;21709;-64
2023/08/31 04:27:31;;;;;;;0.10;0.10;;;;;;;20.79;100.00;100859.69;2090893;28;20467;-64
2023/08/31 04:28:32;;;;;;;0.03;0.03;;;;;;;20.81;100.00;100856.34;2087897;28;20188;-64
2023/08/31 04:29:32;;;;;;;11.10;1.03;;;;;;;20.81;100.00;100864.78;2092177;28;20175;-64
2023/08/31 04:30:33;;;;;;;0.00;0.00;;;;;;;20.76;100.00;100863.47;2092156;28;20183;-64
2023/08/31 04:31:33;;;;;;;0.10;0.10;;;;;;;20.79;100.00;100868.13;2087679;28;20173;-64
2023/08/31 04:32:35;;;;;;;0.10;0.10;;;;;;;20.81;100.00;100873.25;2091040;28;20187;-64
2023/08/31 04:33:37;;;;;;;0.10;0.10;;;;;;;20.82;100.00;100872.00;2089655;28;20180;-64
2023/08/31 04:34:37;;;;;;;0.00;0.00;;;;;;;20.79;100.00;100882.22;2091842;28;20449;-64
2023/08/31 04:35:38;;;;;;;0.10;0.10;;;;;;;20.82;100.00;100874.81;2086651;28;20473;-64
2023/08/31 04:36:38;;;;;;;0.20;0.10;;;;;;;20.70;100.00;100864.69;2094190;28;20190;-64
2023/08/31 04:37:38;;;;;;;0.00;0.00;;;;;;;20.82;100.00;100872.00;2094965;28;20179;-64
2023/08/31 04:38:39;;;;;;;0.20;0.10;;;;;;;20.85;100.00;100874.59;2090350;28;20176;-64
2023/08/31 04:39:39;;;;;;;0.10;0.10;;;;;;;20.87;100.00;100874.09;2095648;28;20172;-64
2023/08/31 04:40:40;;;;;;;0.10;0.10;;;;;;;20.87;100.00;100871.28;2088026;28;20569;-64
2023/08/31 04:41:41;;;;;;;0.10;0.10;;;;;;;20.88;100.00;100870.00;2087266;28;20688;-64
2023/08/31 04:42:42;;;;;;;0.07;0.07;;;;;;;20.90;100.00;100867.47;2087955;28;20820;-64
2023/08/31 04:43:42;;;;;;;0.07;0.07;;;;;;;20.53;100.00;100813.06;2088989;28;20184;-64
2023/08/31 04:44:43;;;;;;;0.10;0.10;;;;;;;20.89;100.00;100858.28;2091328;28;20212;-64